sensor_id;sensor_type;location;lat;lon;timestamp;P1;durP1;ratioP1;P2;durP2;ratioP2
39970;SDS011;35425;51.142;17.178;2024-01-16T00:00:31;2.72;;;1.92;;
39970;SDS011;35425;51.142;17.178;2024-01-16T00:02:58;2.38;;;1.58;;
39970;SDS011;35425;51.142;17.178;2024-01-16T00:05:24;3.25;;;2.08;;
39970;SDS011;35425;51.142;17.178;2024-01-16T00:07:52;2.92;;;2.00;;
39970;SDS011;35425;51.142;17.178;2024-01-16T00:10:19;3.35;;;2.00;;
39970;SDS011;35425;51.142;17.178;2024-01-16T00:12:45;2.67;;;2.10;;
39970;SDS011;35425;51.142;17.178;2024-01-16T00:15:13;2.55;;;1.73;;
39970;SDS011;35425;51.142;17.178;2024-01-16T00:17:39;3.33;;;1.95;;
39970;SDS011;35425;51.142;17.178;2024-01-16T00:20:06;2.50;;;1.63;;
39970;SDS011;35425;51.142;17.178;2024-01-16T00:22:34;2.33;;;1.67;;
39970;SDS011;35425;51.142;17.178;2024-01-16T00:25:01;3.10;;;1.70;;
39970;SDS011;35425;51.142;17.178;2024-01-16T00:27:28;2.47;;;1.75;;
39970;SDS011;35425;51.142;17.178;2024-01-16T00:29:54;2.92;;;1.85;;
39970;SDS011;35425;51.142;17.178;2024-01-16T00:32:21;2.70;;;1.70;;
39970;SDS011;35425;51.142;17.178;2024-01-16T00:34:48;2.90;;;1.55;;
39970;SDS011;35425;51.142;17.178;2024-01-16T00:37:15;1.67;;;1.38;;
39970;SDS011;35425;51.142;17.178;2024-01-16T00:39:42;2.22;;;1.30;;
39970;SDS011;35425;51.142;17.178;2024-01-16T00:42:09;1.63;;;1.13;;
39970;SDS011;35425;51.142;17.178;2024-01-16T00:44:35;1.77;;;1.05;;
39970;SDS011;35425;51.142;17.178;2024-01-16T00:47:02;1.20;;;1.00;;
39970;SDS011;35425;51.142;17.178;2024-01-16T00:49:29;1.73;;;1.10;;
39970;SDS011;35425;51.142;17.178;2024-01-16T00:51:56;1.73;;;1.10;;
39970;SDS011;35425;51.142;17.178;2024-01-16T00:54:23;1.88;;;1.20;;
39970;SDS011;35425;51.142;17.178;2024-01-16T00:56:50;1.83;;;1.10;;
39970;SDS011;35425;51.142;17.178;2024-01-16T00:59:17;1.88;;;1.23;;
39970;SDS011;35425;51.142;17.178;2024-01-16T01:01:44;1.98;;;1.10;;
39970;SDS011;35425;51.142;17.178;2024-01-16T01:04:11;1.65;;;0.80;;
39970;SDS011;35425;51.142;17.178;2024-01-16T01:06:38;1.63;;;0.98;;
39970;SDS011;35425;51.142;17.178;2024-01-16T01:09:05;0.95;;;0.85;;
39970;SDS011;35425;51.142;17.178;2024-01-16T01:11:32;1.50;;;0.70;;
39970;SDS011;35425;51.142;17.178;2024-01-16T01:13:58;1.75;;;0.88;;
39970;SDS011;35425;51.142;17.178;2024-01-16T01:16:26;1.85;;;0.98;;
39970;SDS011;35425;51.142;17.178;2024-01-16T01:18:52;1.30;;;0.70;;
39970;SDS011;35425;51.142;17.178;2024-01-16T01:21:21;1.50;;;0.73;;
39970;SDS011;35425;51.142;17.178;2024-01-16T01:23:48;0.90;;;0.70;;
39970;SDS011;35425;51.142;17.178;2024-01-16T01:26:15;1.02;;;0.60;;
39970;SDS011;35425;51.142;17.178;2024-01-16T01:28:44;1.08;;;0.85;;
39970;SDS011;35425;51.142;17.178;2024-01-16T01:31:12;1.23;;;0.75;;
39970;SDS011;35425;51.142;17.178;2024-01-16T01:33:39;1.20;;;0.80;;
39970;SDS011;35425;51.142;17.178;2024-01-16T01:36:06;1.60;;;0.85;;
39970;SDS011;35425;51.142;17.178;2024-01-16T01:38:33;1.13;;;0.80;;
39970;SDS011;35425;51.142;17.178;2024-01-16T01:41:00;1.40;;;0.73;;
39970;SDS011;35425;51.142;17.178;2024-01-16T01:43:29;1.48;;;0.70;;
39970;SDS011;35425;51.142;17.178;2024-01-16T01:48:42;1.23;;;0.82;;
39970;SDS011;35425;51.142;17.178;2024-01-16T01:51:10;1.10;;;0.70;;
39970;SDS011;35425;51.142;17.178;2024-01-16T01:53:38;0.68;;;0.50;;
39970;SDS011;35425;51.142;17.178;2024-01-16T01:56:07;1.10;;;0.50;;
39970;SDS011;35425;51.142;17.178;2024-01-16T01:58:35;0.70;;;0.45;;
39970;SDS011;35425;51.142;17.178;2024-01-16T02:01:03;0.98;;;0.60;;
39970;SDS011;35425;51.142;17.178;2024-01-16T02:03:32;0.77;;;0.50;;
39970;SDS011;35425;51.142;17.178;2024-01-16T02:05:59;1.08;;;0.70;;
39970;SDS011;35425;51.142;17.178;2024-01-16T02:08:26;1.02;;;0.65;;
39970;SDS011;35425;51.142;17.178;2024-01-16T02:10:53;0.88;;;0.52;;
39970;SDS011;35425;51.142;17.178;2024-01-16T02:13:20;0.98;;;0.55;;
39970;SDS011;35425;51.142;17.178;2024-01-16T02:15:50;0.93;;;0.47;;
39970;SDS011;35425;51.142;17.178;2024-01-16T02:18:17;0.93;;;0.40;;
39970;SDS011;35425;51.142;17.178;2024-01-16T02:20:44;1.05;;;0.50;;
39970;SDS011;35425;51.142;17.178;2024-01-16T02:23:13;1.13;;;0.60;;
39970;SDS011;35425;51.142;17.178;2024-01-16T02:25:41;1.05;;;0.50;;
39970;SDS011;35425;51.142;17.178;2024-01-16T02:28:09;0.68;;;0.40;;
39970;SDS011;35425;51.142;17.178;2024-01-16T02:30:36;0.63;;;0.47;;
39970;SDS011;35425;51.142;17.178;2024-01-16T02:33:02;0.73;;;0.45;;
39970;SDS011;35425;51.142;17.178;2024-01-16T02:35:31;1.00;;;0.55;;
39970;SDS011;35425;51.142;17.178;2024-01-16T02:37:58;1.42;;;0.68;;
39970;SDS011;35425;51.142;17.178;2024-01-16T02:40:27;0.60;;;0.40;;
39970;SDS011;35425;51.142;17.178;2024-01-16T02:42:54;0.73;;;0.45;;
39970;SDS011;35425;51.142;17.178;2024-01-16T02:45:21;1.15;;;0.40;;
39970;SDS011;35425;51.142;17.178;2024-01-16T02:47:48;0.40;;;0.40;;
39970;SDS011;35425;51.142;17.178;2024-01-16T02:50:16;0.55;;;0.40;;
39970;SDS011;35425;51.142;17.178;2024-01-16T02:52:44;1.00;;;0.52;;
39970;SDS011;35425;51.142;17.178;2024-01-16T02:55:11;0.68;;;0.40;;
39970;SDS011;35425;51.142;17.178;2024-01-16T02:57:38;0.60;;;0.40;;
39970;SDS011;35425;51.142;17.178;2024-01-16T03:00:05;0.50;;;0.40;;
39970;SDS011;35425;51.142;17.178;2024-01-16T03:02:32;1.60;;;0.47;;
39970;SDS011;35425;51.142;17.178;2024-01-16T03:04:59;1.05;;;0.68;;
39970;SDS011;35425;51.142;17.178;2024-01-16T03:07:26;0.63;;;0.50;;
39970;SDS011;35425;51.142;17.178;2024-01-16T03:09:54;0.70;;;0.50;;
39970;SDS011;35425;51.142;17.178;2024-01-16T03:12:21;0.90;;;0.55;;
39970;SDS011;35425;51.142;17.178;2024-01-16T03:14:48;1.00;;;0.50;;
39970;SDS011;35425;51.142;17.178;2024-01-16T03:17:15;1.30;;;0.60;;
39970;SDS011;35425;51.142;17.178;2024-01-16T03:19:42;0.80;;;0.52;;
39970;SDS011;35425;51.142;17.178;2024-01-16T03:22:10;0.70;;;0.40;;
39970;SDS011;35425;51.142;17.178;2024-01-16T03:24:37;1.00;;;0.50;;
39970;SDS011;35425;51.142;17.178;2024-01-16T03:27:04;0.75;;;0.60;;
39970;SDS011;35425;51.142;17.178;2024-01-16T03:29:31;0.95;;;0.50;;
39970;SDS011;35425;51.142;17.178;2024-01-16T03:32:00;0.82;;;0.50;;
39970;SDS011;35425;51.142;17.178;2024-01-16T03:34:27;1.23;;;0.82;;
39970;SDS011;35425;51.142;17.178;2024-01-16T03:36:54;0.85;;;0.50;;
39970;SDS011;35425;51.142;17.178;2024-01-16T03:39:21;1.58;;;0.90;;
39970;SDS011;35425;51.142;17.178;2024-01-16T03:41:49;1.10;;;0.55;;
39970;SDS011;35425;51.142;17.178;2024-01-16T03:44:16;0.52;;;0.50;;
39970;SDS011;35425;51.142;17.178;2024-01-16T03:46:43;0.90;;;0.70;;
39970;SDS011;35425;51.142;17.178;2024-01-16T03:49:13;1.10;;;0.70;;
39970;SDS011;35425;51.142;17.178;2024-01-16T03:51:40;1.20;;;0.60;;
39970;SDS011;35425;51.142;17.178;2024-01-16T03:56:42;1.40;;;0.60;;
39970;SDS011;35425;51.142;17.178;2024-01-16T03:59:09;0.77;;;0.50;;
39970;SDS011;35425;51.142;17.178;2024-01-16T04:01:37;1.02;;;0.50;;
39970;SDS011;35425;51.142;17.178;2024-01-16T04:04:04;1.38;;;0.40;;
39970;SDS011;35425;51.142;17.178;2024-01-16T04:06:34;0.77;;;0.55;;
39970;SDS011;35425;51.142;17.178;2024-01-16T04:09:01;0.93;;;0.60;;
39970;SDS011;35425;51.142;17.178;2024-01-16T04:11:28;0.47;;;0.40;;
39970;SDS011;35425;51.142;17.178;2024-01-16T04:13:56;1.35;;;0.70;;
39970;SDS011;35425;51.142;17.178;2024-01-16T04:16:23;1.25;;;0.55;;
39970;SDS011;35425;51.142;17.178;2024-01-16T04:18:50;1.05;;;0.60;;
39970;SDS011;35425;51.142;17.178;2024-01-16T04:21:17;1.00;;;0.63;;
39970;SDS011;35425;51.142;17.178;2024-01-16T04:23:46;0.73;;;0.50;;
39970;SDS011;35425;51.142;17.178;2024-01-16T04:26:14;0.98;;;0.40;;
39970;SDS011;35425;51.142;17.178;2024-01-16T04:28:41;1.23;;;0.52;;
39970;SDS011;35425;51.142;17.178;2024-01-16T04:31:09;0.90;;;0.63;;
39970;SDS011;35425;51.142;17.178;2024-01-16T04:33:40;1.00;;;0.50;;
39970;SDS011;35425;51.142;17.178;2024-01-16T04:36:07;0.85;;;0.50;;
39970;SDS011;35425;51.142;17.178;2024-01-16T04:38:34;0.90;;;0.52;;
39970;SDS011;35425;51.142;17.178;2024-01-16T04:41:04;1.20;;;0.65;;
39970;SDS011;35425;51.142;17.178;2024-01-16T04:43:31;0.90;;;0.60;;
39970;SDS011;35425;51.142;17.178;2024-01-16T04:45:58;1.67;;;0.80;;
39970;SDS011;35425;51.142;17.178;2024-01-16T04:48:29;0.60;;;0.50;;
39970;SDS011;35425;51.142;17.178;2024-01-16T04:50:56;0.70;;;0.55;;
39970;SDS011;35425;51.142;17.178;2024-01-16T04:53:23;1.00;;;0.40;;
39970;SDS011;35425;51.142;17.178;2024-01-16T04:55:50;1.10;;;0.65;;
39970;SDS011;35425;51.142;17.178;2024-01-16T04:58:17;0.90;;;0.60;;
39970;SDS011;35425;51.142;17.178;2024-01-16T05:00:45;1.23;;;0.50;;
39970;SDS011;35425;51.142;17.178;2024-01-16T05:03:13;1.13;;;0.63;;
39970;SDS011;35425;51.142;17.178;2024-01-16T05:05:40;0.80;;;0.50;;
39970;SDS011;35425;51.142;17.178;2024-01-16T05:08:07;1.00;;;0.50;;
39970;SDS011;35425;51.142;17.178;2024-01-16T05:10:35;0.98;;;0.60;;
39970;SDS011;35425;51.142;17.178;2024-01-16T05:13:02;1.05;;;0.57;;
39970;SDS011;35425;51.142;17.178;2024-01-16T05:15:29;1.63;;;0.70;;
39970;SDS011;35425;51.142;17.178;2024-01-16T05:17:56;1.23;;;0.50;;
39970;SDS011;35425;51.142;17.178;2024-01-16T05:20:23;1.05;;;0.50;;
39970;SDS011;35425;51.142;17.178;2024-01-16T05:22:50;1.10;;;0.63;;
39970;SDS011;35425;51.142;17.178;2024-01-16T05:25:17;1.15;;;0.60;;
39970;SDS011;35425;51.142;17.178;2024-01-16T05:27:45;1.35;;;0.85;;
39970;SDS011;35425;51.142;17.178;2024-01-16T05:30:11;1.48;;;0.50;;
39970;SDS011;35425;51.142;17.178;2024-01-16T05:32:39;1.38;;;0.57;;
39970;SDS011;35425;51.142;17.178;2024-01-16T05:35:08;1.30;;;0.50;;
39970;SDS011;35425;51.142;17.178;2024-01-16T05:37:36;1.45;;;0.68;;
39970;SDS011;35425;51.142;17.178;2024-01-16T05:40:03;1.15;;;0.77;;
39970;SDS011;35425;51.142;17.178;2024-01-16T05:42:30;1.50;;;0.70;;
39970;SDS011;35425;51.142;17.178;2024-01-16T05:44:58;1.52;;;0.75;;
39970;SDS011;35425;51.142;17.178;2024-01-16T05:47:25;1.30;;;0.60;;
39970;SDS011;35425;51.142;17.178;2024-01-16T05:49:54;0.80;;;0.50;;
39970;SDS011;35425;51.142;17.178;2024-01-16T05:52:22;0.80;;;0.50;;
39970;SDS011;35425;51.142;17.178;2024-01-16T05:54:49;1.05;;;0.60;;
39970;SDS011;35425;51.142;17.178;2024-01-16T05:57:16;0.65;;;0.43;;
39970;SDS011;35425;51.142;17.178;2024-01-16T05:59:43;1.23;;;0.50;;
39970;SDS011;35425;51.142;17.178;2024-01-16T06:02:10;1.23;;;0.45;;
39970;SDS011;35425;51.142;17.178;2024-01-16T06:04:37;0.85;;;0.43;;
39970;SDS011;35425;51.142;17.178;2024-01-16T06:07:05;0.77;;;0.40;;
39970;SDS011;35425;51.142;17.178;2024-01-16T06:09:40;0.57;;;0.40;;
39970;SDS011;35425;51.142;17.178;2024-01-16T06:12:07;0.98;;;0.50;;
39970;SDS011;35425;51.142;17.178;2024-01-16T06:14:34;1.05;;;0.57;;
39970;SDS011;35425;51.142;17.178;2024-01-16T06:17:01;0.45;;;0.40;;
39970;SDS011;35425;51.142;17.178;2024-01-16T06:19:29;1.85;;;0.45;;
39970;SDS011;35425;51.142;17.178;2024-01-16T06:21:56;1.45;;;0.50;;
39970;SDS011;35425;51.142;17.178;2024-01-16T06:24:23;0.63;;;0.40;;
39970;SDS011;35425;51.142;17.178;2024-01-16T06:26:50;1.13;;;0.60;;
39970;SDS011;35425;51.142;17.178;2024-01-16T06:29:20;1.38;;;0.63;;
39970;SDS011;35425;51.142;17.178;2024-01-16T06:32:00;1.35;;;0.55;;
39970;SDS011;35425;51.142;17.178;2024-01-16T06:34:27;0.40;;;0.30;;
39970;SDS011;35425;51.142;17.178;2024-01-16T06:36:55;1.35;;;0.30;;
39970;SDS011;35425;51.142;17.178;2024-01-16T06:39:22;1.67;;;0.63;;
39970;SDS011;35425;51.142;17.178;2024-01-16T06:41:49;1.30;;;0.52;;
39970;SDS011;35425;51.142;17.178;2024-01-16T06:44:18;1.58;;;0.60;;
39970;SDS011;35425;51.142;17.178;2024-01-16T06:46:45;0.80;;;0.50;;
39970;SDS011;35425;51.142;17.178;2024-01-16T06:49:13;0.63;;;0.40;;
39970;SDS011;35425;51.142;17.178;2024-01-16T06:51:40;1.88;;;0.43;;
39970;SDS011;35425;51.142;17.178;2024-01-16T06:54:07;1.02;;;0.70;;
39970;SDS011;35425;51.142;17.178;2024-01-16T06:56:35;0.98;;;0.60;;
39970;SDS011;35425;51.142;17.178;2024-01-16T06:59:02;1.00;;;0.50;;
39970;SDS011;35425;51.142;17.178;2024-01-16T07:01:28;0.90;;;0.40;;
39970;SDS011;35425;51.142;17.178;2024-01-16T07:03:58;0.80;;;0.50;;
39970;SDS011;35425;51.142;17.178;2024-01-16T07:06:25;0.88;;;0.50;;
39970;SDS011;35425;51.142;17.178;2024-01-16T07:08:52;1.33;;;0.50;;
39970;SDS011;35425;51.142;17.178;2024-01-16T07:11:21;1.77;;;0.60;;
39970;SDS011;35425;51.142;17.178;2024-01-16T07:13:50;0.93;;;0.30;;
39970;SDS011;35425;51.142;17.178;2024-01-16T07:16:17;1.15;;;0.50;;
39970;SDS011;35425;51.142;17.178;2024-01-16T07:18:44;0.63;;;0.30;;
39970;SDS011;35425;51.142;17.178;2024-01-16T07:21:20;0.95;;;0.50;;
39970;SDS011;35425;51.142;17.178;2024-01-16T07:23:47;0.63;;;0.40;;
39970;SDS011;35425;51.142;17.178;2024-01-16T07:26:15;0.60;;;0.50;;
39970;SDS011;35425;51.142;17.178;2024-01-16T07:28:43;0.60;;;0.30;;
39970;SDS011;35425;51.142;17.178;2024-01-16T07:31:10;0.70;;;0.43;;
39970;SDS011;35425;51.142;17.178;2024-01-16T07:33:38;0.80;;;0.40;;
39970;SDS011;35425;51.142;17.178;2024-01-16T07:36:08;1.05;;;0.40;;
39970;SDS011;35425;51.142;17.178;2024-01-16T07:38:38;0.50;;;0.30;;
39970;SDS011;35425;51.142;17.178;2024-01-16T07:41:05;0.80;;;0.50;;
39970;SDS011;35425;51.142;17.178;2024-01-16T07:43:32;1.75;;;0.70;;
39970;SDS011;35425;51.142;17.178;2024-01-16T07:45:59;0.82;;;0.40;;
39970;SDS011;35425;51.142;17.178;2024-01-16T07:48:27;1.10;;;0.50;;
39970;SDS011;35425;51.142;17.178;2024-01-16T07:50:54;1.27;;;0.50;;
39970;SDS011;35425;51.142;17.178;2024-01-16T07:53:22;2.53;;;0.60;;
39970;SDS011;35425;51.142;17.178;2024-01-16T07:55:48;1.25;;;0.70;;
39970;SDS011;35425;51.142;17.178;2024-01-16T07:58:18;0.90;;;0.80;;
39970;SDS011;35425;51.142;17.178;2024-01-16T08:00:45;1.55;;;0.90;;
39970;SDS011;35425;51.142;17.178;2024-01-16T08:03:12;1.20;;;0.90;;
39970;SDS011;35425;51.142;17.178;2024-01-16T08:05:43;2.10;;;1.25;;
39970;SDS011;35425;51.142;17.178;2024-01-16T08:08:10;1.92;;;1.08;;
39970;SDS011;35425;51.142;17.178;2024-01-16T08:10:40;2.88;;;1.52;;
39970;SDS011;35425;51.142;17.178;2024-01-16T08:13:11;2.30;;;1.50;;
39970;SDS011;35425;51.142;17.178;2024-01-16T08:15:38;3.25;;;1.52;;
39970;SDS011;35425;51.142;17.178;2024-01-16T08:18:05;2.65;;;1.65;;
39970;SDS011;35425;51.142;17.178;2024-01-16T08:20:32;2.95;;;1.70;;
39970;SDS011;35425;51.142;17.178;2024-01-16T08:22:59;2.95;;;1.88;;
39970;SDS011;35425;51.142;17.178;2024-01-16T08:25:26;3.35;;;2.05;;
39970;SDS011;35425;51.142;17.178;2024-01-16T08:27:53;3.35;;;2.20;;
39970;SDS011;35425;51.142;17.178;2024-01-16T08:30:20;2.60;;;1.73;;
39970;SDS011;35425;51.142;17.178;2024-01-16T08:32:47;3.85;;;2.03;;
39970;SDS011;35425;51.142;17.178;2024-01-16T08:35:14;3.25;;;1.98;;
39970;SDS011;35425;51.142;17.178;2024-01-16T08:37:41;3.25;;;2.15;;
39970;SDS011;35425;51.142;17.178;2024-01-16T08:40:08;3.25;;;2.10;;
39970;SDS011;35425;51.142;17.178;2024-01-16T08:42:35;3.83;;;2.35;;
39970;SDS011;35425;51.142;17.178;2024-01-16T08:45:02;3.08;;;1.90;;
39970;SDS011;35425;51.142;17.178;2024-01-16T08:47:29;3.20;;;2.13;;
39970;SDS011;35425;51.142;17.178;2024-01-16T08:49:56;3.63;;;2.10;;
39970;SDS011;35425;51.142;17.178;2024-01-16T08:52:23;4.45;;;2.45;;
39970;SDS011;35425;51.142;17.178;2024-01-16T08:54:51;3.30;;;1.88;;
39970;SDS011;35425;51.142;17.178;2024-01-16T08:57:17;2.53;;;1.95;;
39970;SDS011;35425;51.142;17.178;2024-01-16T08:59:46;3.50;;;2.15;;
39970;SDS011;35425;51.142;17.178;2024-01-16T09:02:13;2.33;;;1.70;;
39970;SDS011;35425;51.142;17.178;2024-01-16T09:04:40;2.10;;;1.80;;
39970;SDS011;35425;51.142;17.178;2024-01-16T09:07:07;3.00;;;1.80;;
39970;SDS011;35425;51.142;17.178;2024-01-16T09:09:35;2.50;;;1.70;;
39970;SDS011;35425;51.142;17.178;2024-01-16T09:12:02;2.92;;;2.17;;
39970;SDS011;35425;51.142;17.178;2024-01-16T09:14:30;2.85;;;2.13;;
39970;SDS011;35425;51.142;17.178;2024-01-16T09:16:57;2.20;;;1.70;;
39970;SDS011;35425;51.142;17.178;2024-01-16T09:19:24;2.83;;;1.95;;
39970;SDS011;35425;51.142;17.178;2024-01-16T09:21:53;2.70;;;1.80;;
39970;SDS011;35425;51.142;17.178;2024-01-16T09:24:23;3.20;;;2.13;;
39970;SDS011;35425;51.142;17.178;2024-01-16T09:26:49;2.75;;;1.70;;
39970;SDS011;35425;51.142;17.178;2024-01-16T09:29:16;4.18;;;1.80;;
39970;SDS011;35425;51.142;17.178;2024-01-16T09:31:43;2.85;;;1.90;;
39970;SDS011;35425;51.142;17.178;2024-01-16T09:34:10;3.10;;;1.83;;
39970;SDS011;35425;51.142;17.178;2024-01-16T09:36:40;3.83;;;1.77;;
39970;SDS011;35425;51.142;17.178;2024-01-16T09:39:07;2.45;;;1.60;;
39970;SDS011;35425;51.142;17.178;2024-01-16T09:41:45;3.05;;;1.60;;
39970;SDS011;35425;51.142;17.178;2024-01-16T09:44:12;3.47;;;2.00;;
39970;SDS011;35425;51.142;17.178;2024-01-16T09:46:40;2.25;;;1.63;;
39970;SDS011;35425;51.142;17.178;2024-01-16T09:49:10;3.03;;;1.50;;
39970;SDS011;35425;51.142;17.178;2024-01-16T09:51:38;2.35;;;1.63;;
39970;SDS011;35425;51.142;17.178;2024-01-16T09:54:05;2.20;;;1.30;;
39970;SDS011;35425;51.142;17.178;2024-01-16T09:56:37;2.38;;;1.52;;
39970;SDS011;35425;51.142;17.178;2024-01-16T09:59:06;2.30;;;1.50;;
39970;SDS011;35425;51.142;17.178;2024-01-16T10:01:38;2.05;;;1.70;;
39970;SDS011;35425;51.142;17.178;2024-01-16T10:04:06;2.70;;;1.42;;
39970;SDS011;35425;51.142;17.178;2024-01-16T10:06:33;3.28;;;1.60;;
39970;SDS011;35425;51.142;17.178;2024-01-16T10:09:00;1.88;;;1.40;;
39970;SDS011;35425;51.142;17.178;2024-01-16T10:11:31;2.42;;;1.50;;
39970;SDS011;35425;51.142;17.178;2024-01-16T10:13:59;2.25;;;1.58;;
39970;SDS011;35425;51.142;17.178;2024-01-16T10:19:16;1.77;;;1.40;;
39970;SDS011;35425;51.142;17.178;2024-01-16T10:21:43;2.38;;;1.80;;
39970;SDS011;35425;51.142;17.178;2024-01-16T10:24:11;2.03;;;1.48;;
39970;SDS011;35425;51.142;17.178;2024-01-16T10:26:39;1.92;;;1.60;;
39970;SDS011;35425;51.142;17.178;2024-01-16T10:29:07;2.83;;;1.70;;
39970;SDS011;35425;51.142;17.178;2024-01-16T10:31:37;2.00;;;1.50;;
39970;SDS011;35425;51.142;17.178;2024-01-16T10:36:34;2.97;;;1.60;;
39970;SDS011;35425;51.142;17.178;2024-01-16T10:39:02;2.47;;;1.65;;
39970;SDS011;35425;51.142;17.178;2024-01-16T10:41:32;3.08;;;1.85;;
39970;SDS011;35425;51.142;17.178;2024-01-16T10:44:06;2.67;;;1.65;;
39970;SDS011;35425;51.142;17.178;2024-01-16T10:46:37;2.30;;;1.55;;
39970;SDS011;35425;51.142;17.178;2024-01-16T10:49:04;2.90;;;1.58;;
39970;SDS011;35425;51.142;17.178;2024-01-16T10:51:31;2.58;;;1.83;;
39970;SDS011;35425;51.142;17.178;2024-01-16T10:53:59;2.28;;;1.58;;
39970;SDS011;35425;51.142;17.178;2024-01-16T10:56:29;2.55;;;1.52;;
39970;SDS011;35425;51.142;17.178;2024-01-16T10:59:14;3.30;;;2.20;;
39970;SDS011;35425;51.142;17.178;2024-01-16T11:01:43;3.42;;;1.60;;
39970;SDS011;35425;51.142;17.178;2024-01-16T11:04:10;3.30;;;1.52;;
39970;SDS011;35425;51.142;17.178;2024-01-16T11:06:41;2.40;;;1.58;;
39970;SDS011;35425;51.142;17.178;2024-01-16T11:09:09;2.17;;;1.40;;
39970;SDS011;35425;51.142;17.178;2024-01-16T11:11:39;3.00;;;1.60;;
39970;SDS011;35425;51.142;17.178;2024-01-16T11:14:07;2.63;;;1.80;;
39970;SDS011;35425;51.142;17.178;2024-01-16T11:16:35;2.08;;;1.48;;
39970;SDS011;35425;51.142;17.178;2024-01-16T11:19:03;2.05;;;1.40;;
39970;SDS011;35425;51.142;17.178;2024-01-16T11:21:50;2.33;;;1.50;;
39970;SDS011;35425;51.142;17.178;2024-01-16T11:24:18;3.55;;;1.75;;
39970;SDS011;35425;51.142;17.178;2024-01-16T11:26:45;2.33;;;1.50;;
39970;SDS011;35425;51.142;17.178;2024-01-16T11:34:55;1.52;;;1.10;;
39970;SDS011;35425;51.142;17.178;2024-01-16T11:37:26;2.38;;;1.35;;
39970;SDS011;35425;51.142;17.178;2024-01-16T11:42:41;2.53;;;1.42;;
39970;SDS011;35425;51.142;17.178;2024-01-16T11:48:10;2.00;;;1.23;;
39970;SDS011;35425;51.142;17.178;2024-01-16T11:50:37;2.47;;;1.60;;
39970;SDS011;35425;51.142;17.178;2024-01-16T11:53:04;2.45;;;1.30;;
39970;SDS011;35425;51.142;17.178;2024-01-16T11:55:32;1.70;;;1.17;;
39970;SDS011;35425;51.142;17.178;2024-01-16T12:00:29;2.42;;;1.23;;
39970;SDS011;35425;51.142;17.178;2024-01-16T12:03:00;1.90;;;1.38;;
39970;SDS011;35425;51.142;17.178;2024-01-16T12:05:30;4.00;;;1.48;;
39970;SDS011;35425;51.142;17.178;2024-01-16T12:07:58;3.92;;;1.70;;
39970;SDS011;35425;51.142;17.178;2024-01-16T12:10:25;2.40;;;1.33;;
39970;SDS011;35425;51.142;17.178;2024-01-16T12:12:57;2.08;;;1.35;;
39970;SDS011;35425;51.142;17.178;2024-01-16T12:15:31;2.00;;;1.40;;
39970;SDS011;35425;51.142;17.178;2024-01-16T12:18:01;1.92;;;1.40;;
39970;SDS011;35425;51.142;17.178;2024-01-16T12:20:31;1.60;;;1.25;;
39970;SDS011;35425;51.142;17.178;2024-01-16T12:23:00;2.67;;;1.42;;
39970;SDS011;35425;51.142;17.178;2024-01-16T12:25:28;1.98;;;1.30;;
39970;SDS011;35425;51.142;17.178;2024-01-16T12:28:15;1.90;;;1.23;;
39970;SDS011;35425;51.142;17.178;2024-01-16T12:30:58;1.55;;;1.23;;
39970;SDS011;35425;51.142;17.178;2024-01-16T12:33:27;2.30;;;1.33;;
39970;SDS011;35425;51.142;17.178;2024-01-16T12:36:03;2.20;;;1.17;;
39970;SDS011;35425;51.142;17.178;2024-01-16T12:38:31;1.75;;;1.20;;
39970;SDS011;35425;51.142;17.178;2024-01-16T12:40:59;2.58;;;1.30;;
39970;SDS011;35425;51.142;17.178;2024-01-16T12:43:29;2.45;;;1.48;;
39970;SDS011;35425;51.142;17.178;2024-01-16T12:45:57;2.30;;;1.20;;
39970;SDS011;35425;51.142;17.178;2024-01-16T12:48:27;2.10;;;1.40;;
39970;SDS011;35425;51.142;17.178;2024-01-16T12:51:01;1.58;;;1.13;;
39970;SDS011;35425;51.142;17.178;2024-01-16T12:53:35;2.30;;;1.45;;
39970;SDS011;35425;51.142;17.178;2024-01-16T12:56:06;1.77;;;1.10;;
39970;SDS011;35425;51.142;17.178;2024-01-16T12:58:35;2.30;;;1.67;;
39970;SDS011;35425;51.142;17.178;2024-01-16T13:04:04;1.85;;;1.30;;
39970;SDS011;35425;51.142;17.178;2024-01-16T13:06:31;1.80;;;1.20;;
39970;SDS011;35425;51.142;17.178;2024-01-16T13:09:06;2.30;;;1.40;;
39970;SDS011;35425;51.142;17.178;2024-01-16T13:11:53;2.00;;;1.30;;
39970;SDS011;35425;51.142;17.178;2024-01-16T13:14:25;1.63;;;1.15;;
39970;SDS011;35425;51.142;17.178;2024-01-16T13:16:53;2.67;;;1.30;;
39970;SDS011;35425;51.142;17.178;2024-01-16T13:19:23;1.20;;;0.95;;
39970;SDS011;35425;51.142;17.178;2024-01-16T13:21:50;1.90;;;1.33;;
39970;SDS011;35425;51.142;17.178;2024-01-16T13:24:20;1.52;;;1.10;;
39970;SDS011;35425;51.142;17.178;2024-01-16T13:26:51;2.00;;;1.20;;
39970;SDS011;35425;51.142;17.178;2024-01-16T13:29:18;1.90;;;1.17;;
39970;SDS011;35425;51.142;17.178;2024-01-16T13:31:46;2.20;;;1.23;;
39970;SDS011;35425;51.142;17.178;2024-01-16T13:34:13;2.75;;;1.15;;
39970;SDS011;35425;51.142;17.178;2024-01-16T13:36:41;2.10;;;1.40;;
39970;SDS011;35425;51.142;17.178;2024-01-16T13:39:38;2.92;;;1.48;;
39970;SDS011;35425;51.142;17.178;2024-01-16T13:42:05;2.17;;;1.30;;
39970;SDS011;35425;51.142;17.178;2024-01-16T13:44:34;1.90;;;1.20;;
39970;SDS011;35425;51.142;17.178;2024-01-16T13:47:00;3.00;;;1.30;;
39970;SDS011;35425;51.142;17.178;2024-01-16T13:49:36;2.10;;;1.25;;
39970;SDS011;35425;51.142;17.178;2024-01-16T13:52:04;2.55;;;1.67;;
39970;SDS011;35425;51.142;17.178;2024-01-16T13:54:31;3.58;;;1.77;;
39970;SDS011;35425;51.142;17.178;2024-01-16T13:56:58;2.40;;;1.67;;
39970;SDS011;35425;51.142;17.178;2024-01-16T13:59:34;2.60;;;1.70;;
39970;SDS011;35425;51.142;17.178;2024-01-16T14:02:04;2.55;;;1.52;;
39970;SDS011;35425;51.142;17.178;2024-01-16T14:04:34;1.98;;;1.27;;
39970;SDS011;35425;51.142;17.178;2024-01-16T14:07:01;2.45;;;1.60;;
39970;SDS011;35425;51.142;17.178;2024-01-16T14:09:39;3.60;;;1.58;;
39970;SDS011;35425;51.142;17.178;2024-01-16T14:12:10;1.88;;;1.38;;
39970;SDS011;35425;51.142;17.178;2024-01-16T14:14:38;2.40;;;1.45;;
39970;SDS011;35425;51.142;17.178;2024-01-16T14:17:06;2.05;;;1.30;;
39970;SDS011;35425;51.142;17.178;2024-01-16T14:19:37;2.72;;;1.75;;
39970;SDS011;35425;51.142;17.178;2024-01-16T14:22:05;2.60;;;1.80;;
39970;SDS011;35425;51.142;17.178;2024-01-16T14:24:32;3.03;;;1.67;;
39970;SDS011;35425;51.142;17.178;2024-01-16T14:26:58;2.58;;;1.55;;
39970;SDS011;35425;51.142;17.178;2024-01-16T14:29:26;3.05;;;1.70;;
39970;SDS011;35425;51.142;17.178;2024-01-16T14:31:53;3.10;;;1.83;;
39970;SDS011;35425;51.142;17.178;2024-01-16T14:34:23;2.83;;;1.70;;
39970;SDS011;35425;51.142;17.178;2024-01-16T14:36:51;2.97;;;1.70;;
39970;SDS011;35425;51.142;17.178;2024-01-16T14:39:19;2.13;;;1.55;;
39970;SDS011;35425;51.142;17.178;2024-01-16T14:41:48;2.13;;;1.52;;
39970;SDS011;35425;51.142;17.178;2024-01-16T14:44:15;1.92;;;1.60;;
39970;SDS011;35425;51.142;17.178;2024-01-16T14:46:44;3.28;;;1.88;;
39970;SDS011;35425;51.142;17.178;2024-01-16T14:49:15;2.08;;;1.50;;
39970;SDS011;35425;51.142;17.178;2024-01-16T14:51:43;2.05;;;1.40;;
39970;SDS011;35425;51.142;17.178;2024-01-16T14:54:10;2.97;;;1.63;;
39970;SDS011;35425;51.142;17.178;2024-01-16T14:56:37;3.22;;;1.88;;
39970;SDS011;35425;51.142;17.178;2024-01-16T14:59:04;3.20;;;1.85;;
39970;SDS011;35425;51.142;17.178;2024-01-16T15:01:30;2.67;;;1.77;;
39970;SDS011;35425;51.142;17.178;2024-01-16T15:03:58;3.45;;;1.77;;
39970;SDS011;35425;51.142;17.178;2024-01-16T15:06:26;3.25;;;1.85;;